Time;durP1;ratioP1;P1;durP2;ratioP2;P2;SDS_P1;SDS_P2;PMS_P1;PMS_P2;Temp;Humidity;BMP_temperature;BMP_pressure;BME280_temperature;BME280_humidity;BME280_pressure;Samples;Min_cycle;Max_cycle;Signal;HPM_P1;HPM_P2
2022/04/29 00:00:25;;;;;;;;;;;7.20;99.90;;;;;;5031042;28;20075;-70
2022/04/29 00:02:51;;;;;;;;;;;7.00;99.90;;;;;;5030985;28;19925;-70
2022/04/29 00:05:17;;;;;;;;;;;7.00;99.90;;;;;;5030830;28;20299;-70
2022/04/29 00:07:43;;;;;;;;;;;7.00;99.90;;;;;;5030851;28;19939;-70
2022/04/29 00:10:12;;;;;;;;;;;6.90;99.90;;;;;;5014417;28;19925;-69
2022/04/29 00:12:41;;;;;;;;;;;6.90;99.90;;;;;;5014667;28;20467;-67
2022/04/29 00:15:08;;;;;;;;;;;6.90;99.90;;;;;;5030945;28;19925;-70
2022/04/29 00:17:33;;;;;;;;;;;6.90;99.90;;;;;;5030842;28;20385;-69
2022/04/29 00:19:59;;;;;;;;;;;8.30;99.90;;;;;;5030844;28;19979;-69
2022/04/29 00:22:25;;;;;;;;;;;7.20;99.90;;;;;;5030823;28;20392;-69
2022/04/29 00:24:50;;;;;;;;;;;7.50;99.90;;;;;;5014285;28;20293;-69
2022/04/29 00:27:16;;;;;;;;;;;7.70;99.90;;;;;;5033213;28;20380;-70
2022/04/29 00:29:41;;;;;;;;;;;7.40;99.90;;;;;;5034374;28;19931;-70
2022/04/29 00:32:07;;;;;;;;;;;5.80;99.90;;;;;;5054414;28;20383;-70
2022/04/29 00:34:33;;;;;;;;;;;6.80;99.90;;;;;;5056368;28;20460;-71
2022/04/29 00:36:58;;;;;;;;;;;7.00;99.90;;;;;;5056328;28;19933;-70
2022/04/29 00:39:24;;;;;;;;;;;6.80;99.90;;;;;;5056164;28;19925;-71
2022/04/29 00:41:50;;;;;;;;;;;7.30;99.90;;;;;;5056067;28;20034;-70
2022/04/29 00:44:16;;;;;;;;;;;7.60;99.90;;;;;;5056379;28;20346;-69
2022/04/29 00:46:44;;;;;;;;;;;6.80;99.90;;;;;;5055296;28;19931;-69
2022/04/29 00:49:11;;;;;;;;;;;6.90;99.90;;;;;;5056222;28;19925;-69
2022/04/29 00:51:38;;;;;;;;;;;6.90;99.90;;;;;;5055937;28;19972;-70
2022/04/29 00:54:06;;;;;;;;;;;6.80;99.90;;;;;;5056208;28;19924;-70
2022/04/29 00:56:33;;;;;;;;;;;6.80;99.90;;;;;;5055830;28;20419;-69
2022/04/29 00:59:03;;;;;;;;;;;7.30;99.90;;;;;;5054798;28;20300;-68
2022/04/29 01:01:29;;;;;;;;;;;6.80;99.90;;;;;;5054751;28;20016;-70
2022/04/29 01:03:55;;;;;;;;;;;6.80;99.90;;;;;;5055558;28;19975;-69
2022/04/29 01:06:21;;;;;;;;;;;6.80;99.90;;;;;;5055701;28;19925;-70
2022/04/29 01:08:46;;;;;;;;;;;7.80;99.90;;;;;;5055609;28;19925;-73
2022/04/29 01:11:12;;;;;;;;;;;7.10;99.90;;;;;;5055540;28;19971;-72
2022/04/29 01:13:38;;;;;;;;;;;7.10;99.90;;;;;;5054733;28;19932;-68
2022/04/29 01:16:06;;;;;;;;;;;7.00;99.90;;;;;;5055688;28;19925;-69
2022/04/29 01:18:31;;;;;;;;;;;6.80;99.90;;;;;;5054446;28;19931;-70
2022/04/29 01:21:01;;;;;;;;;;;7.40;99.90;;;;;;5055508;28;19924;-70
2022/04/29 01:23:28;;;;;;;;;;;5.50;99.90;;;;;;5055346;28;20385;-70
2022/04/29 01:25:54;;;;;;;;;;;6.60;99.90;;;;;;5055336;28;20007;-70
2022/04/29 01:28:21;;;;;;;;;;;6.60;99.90;;;;;;5054183;28;19976;-69
2022/04/29 01:30:49;;;;;;;;;;;6.90;99.90;;;;;;5054177;28;19924;-69
2022/04/29 01:33:15;;;;;;;;;;;6.60;99.90;;;;;;5054390;28;19932;-70
2022/04/29 01:35:40;;;;;;;;;;;6.60;99.90;;;;;;5055224;28;20011;-69
2022/04/29 01:38:06;;;;;;;;;;;7.20;99.90;;;;;;5054826;28;19975;-69
2022/04/29 01:40:31;;;;;;;;;;;6.50;99.90;;;;;;5053953;28;19925;-72
2022/04/29 01:42:57;;;;;;;;;;;6.40;99.90;;;;;;5054982;28;19925;-69
2022/04/29 01:45:22;;;;;;;;;;;6.50;99.90;;;;;;5055152;28;20386;-70
2022/04/29 01:47:48;;;;;;;;;;;6.30;99.90;;;;;;5054153;28;19928;-69
2022/04/29 01:50:13;;;;;;;;;;;6.30;99.90;;;;;;5054953;28;19932;-70
2022/04/29 01:52:39;;;;;;;;;;;6.30;99.90;;;;;;5053950;28;19967;-69
2022/04/29 01:55:05;;;;;;;;;;;7.20;99.90;;;;;;5054810;28;19925;-70
2022/04/29 01:57:30;;;;;;;;;;;6.30;99.90;;;;;;5054675;28;19929;-69
2022/04/29 01:59:56;;;;;;;;;;;6.30;99.90;;;;;;5053921;28;19925;-69
2022/04/29 02:02:22;;;;;;;;;;;6.30;99.90;;;;;;5054826;28;19925;-70
2022/04/29 02:04:47;;;;;;;;;;;6.60;99.90;;;;;;5054364;28;19931;-69
2022/04/29 02:07:13;;;;;;;;;;;6.20;99.90;;;;;;5054445;28;19932;-71
2022/04/29 02:09:38;;;;;;;;;;;7.20;99.90;;;;;;5054583;28;19925;-68
2022/04/29 02:12:04;;;;;;;;;;;7.70;99.90;;;;;;5054423;28;20422;-70
2022/04/29 02:14:34;;;;;;;;;;;6.30;99.90;;;;;;5054362;28;20022;-69
2022/04/29 02:17:01;;;;;;;;;;;6.20;99.90;;;;;;5054490;28;19979;-69
2022/04/29 02:19:28;;;;;;;;;;;6.90;99.90;;;;;;5054485;28;19925;-72
2022/04/29 02:21:53;;;;;;;;;;;6.40;99.90;;;;;;5054279;28;19925;-70
2022/04/29 02:24:19;;;;;;;;;;;6.20;99.90;;;;;;5053450;28;20277;-72
2022/04/29 02:26:44;;;;;;;;;;;6.20;99.90;;;;;;5054140;28;20376;-70
2022/04/29 02:29:10;;;;;;;;;;;6.20;99.90;;;;;;5054156;28;20348;-72
2022/04/29 02:31:35;;;;;;;;;;;6.20;99.90;;;;;;5054353;28;20273;-69
2022/04/29 02:34:01;;;;;;;;;;;6.20;99.90;;;;;;5054253;28;20382;-69
2022/04/29 02:36:26;;;;;;;;;;;6.70;99.90;;;;;;5053126;28;19974;-70
2022/04/29 02:38:52;;;;;;;;;;;6.20;99.90;;;;;;5053957;28;20032;-69
2022/04/29 02:41:17;;;;;;;;;;;7.00;99.90;;;;;;5052852;28;20039;-69
2022/04/29 02:43:43;;;;;;;;;;;6.20;99.90;;;;;;5053833;28;20463;-72
2022/04/29 02:46:09;;;;;;;;;;;5.10;99.90;;;;;;5054346;28;19979;-71
2022/04/29 02:48:34;;;;;;;;;;;6.80;99.90;;;;;;5053479;28;19925;-69
2022/04/29 02:51:00;;;;;;;;;;;6.10;99.90;;;;;;5053953;28;19936;-70
2022/04/29 02:53:25;;;;;;;;;;;6.60;99.90;;;;;;5053814;28;19931;-72
2022/04/29 02:55:51;;;;;;;;;;;6.30;99.90;;;;;;5052867;28;19925;-69
2022/04/29 02:58:16;;;;;;;;;;;6.60;99.90;;;;;;5053668;28;19925;-68
2022/04/29 03:00:42;;;;;;;;;;;6.20;99.90;;;;;;5052296;28;19980;-70
2022/04/29 03:03:08;;;;;;;;;;;6.00;99.90;;;;;;5052682;28;19970;-69
2022/04/29 03:05:34;;;;;;;;;;;6.00;99.90;;;;;;5053722;28;19924;-69
2022/04/29 03:07:59;;;;;;;;;;;7.20;99.90;;;;;;5053389;28;20367;-68
2022/04/29 03:10:25;;;;;;;;;;;6.80;99.90;;;;;;5053602;28;20020;-70
2022/04/29 03:12:51;;;;;;;;;;;6.00;99.90;;;;;;5053578;28;19925;-70
2022/04/29 03:15:17;;;;;;;;;;;6.50;99.90;;;;;;5052517;28;20330;-70
2022/04/29 03:20:29;;;;;;;;;;;6.00;99.90;;;;;;5053494;28;19982;-70
2022/04/29 03:22:55;;;;;;;;;;;5.60;99.90;;;;;;5053479;28;19925;-69
2022/04/29 03:25:20;;;;;;;;;;;6.40;99.90;;;;;;5053579;28;20402;-69
2022/04/29 03:27:46;;;;;;;;;;;6.10;99.90;;;;;;5053329;28;19925;-69
2022/04/29 03:30:12;;;;;;;;;;;5.90;99.90;;;;;;5053628;28;20333;-69
2022/04/29 03:32:37;;;;;;;;;;;4.40;99.90;;;;;;5052615;28;19924;-68
2022/04/29 03:35:03;;;;;;;;;;;5.80;99.90;;;;;;5052493;28;19924;-72
2022/04/29 03:37:29;;;;;;;;;;;5.80;99.90;;;;;;5053414;28;20030;-70
2022/04/29 03:39:54;;;;;;;;;;;6.20;99.90;;;;;;5053162;28;20070;-68
2022/04/29 03:42:21;;;;;;;;;;;6.80;99.90;;;;;;5053248;28;19932;-70
2022/04/29 03:44:46;;;;;;;;;;;6.20;99.90;;;;;;5052248;28;19924;-68
2022/04/29 03:47:12;;;;;;;;;;;5.60;99.90;;;;;;5053399;28;19924;-70
2022/04/29 03:49:37;;;;;;;;;;;5.60;99.90;;;;;;5052212;28;19925;-71
2022/04/29 03:52:06;;;;;;;;;;;6.40;99.90;;;;;;5053214;28;20418;-69
2022/04/29 03:54:32;;;;;;;;;;;5.70;99.90;;;;;;5053101;28;19932;-69
2022/04/29 03:56:59;;;;;;;;;;;5.80;99.90;;;;;;5052230;28;19925;-69
2022/04/29 03:59:24;;;;;;;;;;;5.80;99.90;;;;;;5053028;28;19924;-70
2022/04/29 04:01:51;;;;;;;;;;;5.80;99.90;;;;;;5055455;28;19948;-72
2022/04/29 04:04:17;;;;;;;;;;;5.80;99.90;;;;;;5055580;28;19947;-73
2022/04/29 04:06:52;;;;;;;;;;;5.80;99.90;;;;;;5056859;28;19925;-69
2022/04/29 04:09:18;;;;;;;;;;;7.00;99.90;;;;;;5056878;28;20015;-71
2022/04/29 04:11:44;;;;;;;;;;;5.90;99.90;;;;;;5056831;28;19932;-70
2022/04/29 04:14:09;;;;;;;;;;;6.00;99.90;;;;;;5056611;28;19924;-70
2022/04/29 04:16:35;;;;;;;;;;;6.50;99.90;;;;;;5056929;28;19970;-69
2022/04/29 04:19:01;;;;;;;;;;;6.00;99.90;;;;;;5055770;28;19924;-68
2022/04/29 04:21:27;;;;;;;;;;;6.00;99.90;;;;;;5056544;28;19932;-72
2022/04/29 04:23:53;;;;;;;;;;;7.10;99.90;;;;;;5056767;28;19924;-69
2022/04/29 04:26:19;;;;;;;;;;;6.30;99.90;;;;;;5056557;28;19924;-70
2022/04/29 04:28:44;;;;;;;;;;;6.10;99.90;;;;;;5056407;28;20388;-71
2022/04/29 04:31:10;;;;;;;;;;;6.00;99.90;;;;;;5056585;28;19972;-68
2022/04/29 04:33:35;;;;;;;;;;;4.50;99.90;;;;;;5056560;28;19976;-69
2022/04/29 04:36:01;;;;;;;;;;;6.00;99.90;;;;;;5056383;28;20354;-70
2022/04/29 04:38:26;;;;;;;;;;;6.00;99.90;;;;;;5056271;28;20384;-70
2022/04/29 04:40:53;;;;;;;;;;;6.00;99.90;;;;;;5055165;28;19924;-68
2022/04/29 04:43:20;;;;;;;;;;;5.90;99.90;;;;;;5056174;28;19929;-69
2022/04/29 04:45:46;;;;;;;;;;;5.90;99.90;;;;;;5056348;28;19947;-72
2022/04/29 04:48:12;;;;;;;;;;;5.90;99.90;;;;;;5055198;28;20392;-70
2022/04/29 04:50:37;;;;;;;;;;;6.80;99.90;;;;;;5056194;28;20303;-68
2022/04/29 04:53:03;;;;;;;;;;;5.90;99.90;;;;;;5055063;28;20273;-67
2022/04/29 04:55:28;;;;;;;;;;;6.10;99.90;;;;;;5055988;28;20273;-69
2022/04/29 04:57:54;;;;;;;;;;;5.90;99.90;;;;;;5054803;28;19964;-70
2022/04/29 05:00:20;;;;;;;;;;;6.50;99.90;;;;;;5055729;28;20053;-70
2022/04/29 05:02:45;;;;;;;;;;;5.90;99.90;;;;;;5056005;28;20452;-72
2022/04/29 05:05:11;;;;;;;;;;;7.10;99.90;;;;;;5054512;28;19948;-69
2022/04/29 05:07:38;;;;;;;;;;;6.00;99.90;;;;;;5055741;28;19932;-70
2022/04/29 05:10:10;;;;;;;;;;;6.00;99.90;;;;;;5055712;28;19932;-68
2022/04/29 05:12:40;;;;;;;;;;;6.00;99.90;;;;;;5053894;28;19928;-70
2022/04/29 05:15:06;;;;;;;;;;;6.00;99.90;;;;;;5054932;28;19987;-68
2022/04/29 05:17:32;;;;;;;;;;;6.10;99.90;;;;;;5055700;28;19925;-70
2022/04/29 05:19:57;;;;;;;;;;;6.10;99.90;;;;;;5055610;28;19924;-69
2022/04/29 05:22:23;;;;;;;;;;;6.10;99.90;;;;;;5055381;28;19925;-70
2022/04/29 05:24:48;;;;;;;;;;;7.30;99.90;;;;;;5055421;28;19976;-69
2022/04/29 05:27:14;;;;;;;;;;;6.20;99.90;;;;;;5055317;28;19974;-69
2022/04/29 05:29:39;;;;;;;;;;;7.20;99.90;;;;;;5054280;28;20002;-69
2022/04/29 05:32:06;;;;;;;;;;;6.40;99.90;;;;;;5054206;28;19931;-68
2022/04/29 05:34:33;;;;;;;;;;;6.30;99.90;;;;;;5054463;28;19925;-69
2022/04/29 05:36:59;;;;;;;;;;;6.30;99.90;;;;;;5055252;28;20418;-69
2022/04/29 05:42:14;;;;;;;;;;;6.50;99.90;;;;;;5053817;28;19932;-69
2022/04/29 05:44:40;;;;;;;;;;;6.50;99.90;;;;;;5054572;28;20391;-69
2022/04/29 05:47:06;;;;;;;;;;;6.50;99.90;;;;;;5055050;28;19932;-69
2022/04/29 05:49:32;;;;;;;;;;;6.60;99.90;;;;;;5053543;28;19924;-69
2022/04/29 05:52:02;;;;;;;;;;;7.00;99.90;;;;;;5053713;28;19978;-72
2022/04/29 05:54:28;;;;;;;;;;;6.90;99.90;;;;;;5053953;28;19924;-70
2022/04/29 05:56:53;;;;;;;;;;;7.00;99.90;;;;;;5053530;28;19931;-69
2022/04/29 05:59:19;;;;;;;;;;;7.10;99.90;;;;;;5054678;28;20368;-69
2022/04/29 06:01:44;;;;;;;;;;;7.20;99.90;;;;;;5054712;28;19925;-70
2022/04/29 06:04:10;;;;;;;;;;;8.30;99.90;;;;;;5053441;28;19929;-70
2022/04/29 06:06:54;;;;;;;;;;;7.40;99.90;;;;;;5054561;28;19925;-70
2022/04/29 06:09:20;;;;;;;;;;;7.50;99.90;;;;;;5054585;28;20287;-69
2022/04/29 06:11:46;;;;;;;;;;;7.60;99.90;;;;;;5054219;28;20020;-69
2022/04/29 06:14:12;;;;;;;;;;;8.00;99.90;;;;;;5053684;28;19968;-68
2022/04/29 06:16:37;;;;;;;;;;;8.20;99.90;;;;;;5054541;28;19931;-68
2022/04/29 06:19:03;;;;;;;;;;;8.10;99.90;;;;;;5053375;28;19971;-70
2022/04/29 06:21:28;;;;;;;;;;;8.10;99.90;;;;;;5053078;28;19976;-70
2022/04/29 06:23:54;;;;;;;;;;;8.10;99.90;;;;;;5052351;28;19951;-72
2022/04/29 06:26:19;;;;;;;;;;;8.30;99.90;;;;;;5053159;28;20291;-69
2022/04/29 06:28:45;;;;;;;;;;;8.20;99.90;;;;;;5054301;28;19928;-69
2022/04/29 06:31:11;;;;;;;;;;;8.20;99.90;;;;;;5052914;28;19936;-67
2022/04/29 06:33:38;;;;;;;;;;;8.30;99.90;;;;;;5054378;28;20287;-68
2022/04/29 06:36:05;;;;;;;;;;;8.40;99.90;;;;;;5054120;28;19978;-69
2022/04/29 06:38:31;;;;;;;;;;;8.40;99.90;;;;;;5053963;28;19935;-68
2022/04/29 06:40:57;;;;;;;;;;;8.40;99.90;;;;;;5053737;28;20303;-68
2022/04/29 06:43:22;;;;;;;;;;;8.40;99.90;;;;;;5052690;28;19925;-69
2022/04/29 06:45:48;;;;;;;;;;;8.40;99.90;;;;;;5039319;28;19929;-68
2022/04/29 06:48:14;;;;;;;;;;;8.90;99.90;;;;;;5034061;28;19947;-69
2022/04/29 06:50:40;;;;;;;;;;;8.50;99.90;;;;;;5033993;28;20331;-69
2022/04/29 06:53:06;;;;;;;;;;;8.40;99.90;;;;;;5033780;28;19932;-69
2022/04/29 06:55:32;;;;;;;;;;;8.90;99.90;;;;;;5033879;28;19929;-70
2022/04/29 06:57:58;;;;;;;;;;;8.40;99.90;;;;;;5033730;28;19925;-70
2022/04/29 07:00:23;;;;;;;;;;;8.70;99.90;;;;;;5033839;28;20016;-70
2022/04/29 07:02:49;;;;;;;;;;;7.90;99.90;;;;;;5033982;28;19980;-69
2022/04/29 07:05:15;;;;;;;;;;;9.20;99.90;;;;;;5033655;28;19926;-71
2022/04/29 07:07:41;;;;;;;;;;;8.50;99.90;;;;;;5033609;28;19925;-70
2022/04/29 07:10:07;;;;;;;;;;;8.50;99.90;;;;;;5032671;28;19925;-67
2022/04/29 07:12:42;;;;;;;;;;;8.50;99.90;;;;;;5033475;28;20303;-69
2022/04/29 07:15:09;;;;;;;;;;;8.50;99.90;;;;;;5032687;28;20377;-71
2022/04/29 07:17:34;;;;;;;;;;;8.50;99.90;;;;;;5033639;28;20388;-69
2022/04/29 07:20:00;;;;;;;;;;;8.50;99.90;;;;;;5033626;28;19929;-70
2022/04/29 07:22:25;;;;;;;;;;;8.70;99.90;;;;;;5033499;28;19926;-70
2022/04/29 07:24:51;;;;;;;;;;;8.60;99.90;;;;;;5033398;28;19932;-70
2022/04/29 07:27:17;;;;;;;;;;;9.90;99.90;;;;;;5033459;28;19925;-70
2022/04/29 07:29:42;;;;;;;;;;;9.00;99.90;;;;;;5033656;28;19932;-71
2022/04/29 07:32:08;;;;;;;;;;;8.70;99.90;;;;;;5033552;28;19929;-69
2022/04/29 07:42:46;;;;;;;;;;;8.80;99.90;;;;;;5037367;28;20024;-68
2022/04/29 07:45:12;;;;;;;;;;;8.90;99.90;;;;;;5037492;28;20019;-71
2022/04/29 07:47:38;;;;;;;;;;;8.80;99.90;;;;;;5037159;28;20262;-70
2022/04/29 07:50:05;;;;;;;;;;;9.70;99.90;;;;;;5037320;28;19925;-68
2022/04/29 07:52:32;;;;;;;;;;;9.10;99.90;;;;;;5037047;28;19929;-68
2022/04/29 07:54:57;;;;;;;;;;;8.80;99.90;;;;;;5036264;28;19925;-69
2022/04/29 07:57:23;;;;;;;;;;;9.10;99.90;;;;;;5037282;28;19932;-70
2022/04/29 07:59:49;;;;;;;;;;;9.40;99.90;;;;;;5037233;28;19926;-69
2022/04/29 08:02:14;;;;;;;;;;;8.70;99.90;;;;;;5037017;28;19972;-70
2022/04/29 08:04:40;;;;;;;;;;;8.70;99.90;;;;;;5037214;28;20427;-69
2022/04/29 08:07:25;;;;;;;;;;;8.70;99.90;;;;;;5036772;28;19932;-68
2022/04/29 08:09:51;;;;;;;;;;;8.70;99.90;;;;;;5036898;28;20392;-68
2022/04/29 08:12:16;;;;;;;;;;;8.70;99.90;;;;;;5069191;28;19925;-71
2022/04/29 08:14:42;;;;;;;;;;;8.80;99.90;;;;;;5036927;28;19925;-69
2022/04/29 08:17:07;;;;;;;;;;;8.80;99.90;;;;;;5035817;28;19925;-71
2022/04/29 08:19:33;;;;;;;;;;;8.80;99.90;;;;;;5036568;28;19976;-69
2022/04/29 08:21:59;;;;;;;;;;;8.80;99.90;;;;;;5036550;28;20018;-69
2022/04/29 08:24:26;;;;;;;;;;;8.90;99.90;;;;;;5036747;28;19925;-71
2022/04/29 08:26:52;;;;;;;;;;;8.80;99.90;;;;;;5035509;28;19925;-69
2022/04/29 08:29:17;;;;;;;;;;;8.90;99.90;;;;;;5036667;28;19931;-69
2022/04/29 08:31:43;;;;;;;;;;;9.10;99.90;;;;;;5035572;28;19926;-69
2022/04/29 08:34:09;;;;;;;;;;;9.10;99.90;;;;;;5036473;28;19925;-71
2022/04/29 08:36:34;;;;;;;;;;;9.20;99.90;;;;;;5036243;28;19925;-70
2022/04/29 08:39:00;;;;;;;;;;;9.30;99.90;;;;;;5036443;28;19968;-69
2022/04/29 08:41:25;;;;;;;;;;;9.40;99.90;;;;;;5036200;28;19925;-68
2022/04/29 08:43:54;;;;;;;;;;;9.80;99.90;;;;;;5036356;28;19952;-69
2022/04/29 08:46:22;;;;;;;;;;;10.50;99.90;;;;;;5035653;28;19972;-70
2022/04/29 08:48:48;;;;;;;;;;;9.60;99.90;;;;;;5034822;28;19979;-72
2022/04/29 08:51:14;;;;;;;;;;;9.60;99.90;;;;;;5035986;28;19976;-69
2022/04/29 08:53:40;;;;;;;;;;;9.60;99.90;;;;;;5036249;28;19969;-72
2022/04/29 08:58:50;;;;;;;;;;;9.60;99.90;;;;;;5036068;28;20025;-69
2022/04/29 09:01:16;;;;;;;;;;;9.60;99.90;;;;;;5034739;28;19932;-68
2022/04/29 09:03:43;;;;;;;;;;;9.60;99.90;;;;;;5068108;28;19925;-70
2022/04/29 09:06:08;;;;;;;;;;;9.60;99.90;;;;;;5035996;28;19932;-70
2022/04/29 09:08:41;;;;;;;;;;;9.70;99.90;;;;;;5034710;28;19927;-70
2022/04/29 09:11:07;;;;;;;;;;;9.70;99.90;;;;;;5034793;28;19991;-69
2022/04/29 09:13:35;;;;;;;;;;;10.40;99.90;;;;;;5034645;28;19931;-68
2022/04/29 09:16:10;;;;;;;;;;;9.80;99.90;;;;;;5035700;28;19929;-69
2022/04/29 09:18:46;;;;;;;;;;;9.90;99.90;;;;;;5067846;28;20424;-69
2022/04/29 09:21:29;;;;;;;;;;;9.90;99.90;;;;;;5035627;28;19942;-69
2022/04/29 09:23:56;;;;;;;;;;;9.90;99.90;;;;;;5034455;28;19925;-72
2022/04/29 09:26:28;;;;;;;;;;;9.90;99.90;;;;;;5035567;28;20359;-70
2022/04/29 09:29:08;;;;;;;;;;;9.90;99.90;;;;;;5035355;28;20364;-69
2022/04/29 09:31:47;;;;;;;;;;;9.90;99.90;;;;;;5041005;28;19925;-71
2022/04/29 09:34:13;;;;;;;;;;;9.90;99.90;;;;;;5035408;28;20066;-70
2022/04/29 09:36:39;;;;;;;;;;;10.00;99.90;;;;;;5034158;28;19968;-70
2022/04/29 09:41:55;;;;;;;;;;;10.00;99.90;;;;;;5035479;28;19927;-70
2022/04/29 09:44:25;;;;;;;;;;;10.00;99.90;;;;;;5035269;28;19936;-69
2022/04/29 09:46:51;;;;;;;;;;;10.50;99.90;;;;;;5035153;28;19929;-70
2022/04/29 09:49:19;;;;;;;;;;;10.20;99.90;;;;;;5067364;28;20402;-69
2022/04/29 09:51:44;;;;;;;;;;;10.20;99.90;;;;;;5034843;28;19933;-70
2022/04/29 09:54:17;;;;;;;;;;;10.20;99.90;;;;;;5034973;28;19929;-68
2022/04/29 09:56:43;;;;;;;;;;;10.20;99.90;;;;;;5034987;28;20350;-68
2022/04/29 09:59:09;;;;;;;;;;;11.30;99.90;;;;;;5034813;28;19925;-70
2022/04/29 10:01:35;;;;;;;;;;;10.40;99.90;;;;;;5033686;28;19925;-69
2022/04/29 10:04:00;;;;;;;;;;;10.30;99.90;;;;;;5034769;28;19936;-69
2022/04/29 10:06:29;;;;;;;;;;;10.20;99.90;;;;;;5033988;28;20417;-68
2022/04/29 10:08:58;;;;;;;;;;;10.20;99.90;;;;;;5034443;28;19925;-70
2022/04/29 10:11:25;;;;;;;;;;;9.00;99.90;;;;;;5034611;28;19984;-69
2022/04/29 10:13:52;;;;;;;;;;;10.40;99.90;;;;;;5034751;28;20308;-70
2022/04/29 10:16:18;;;;;;;;;;;10.20;99.90;;;;;;5034666;28;19925;-68
2022/04/29 10:21:37;;;;;;;;;;;10.40;99.90;;;;;;5069072;28;19931;-67
2022/04/29 10:24:02;;;;;;;;;;;10.60;99.90;;;;;;5034019;28;19932;-70
2022/04/29 10:26:29;;;;;;;;;;;10.50;99.90;;;;;;5034445;28;19925;-70
2022/04/29 10:28:55;;;;;;;;;;;10.50;99.90;;;;;;5066796;28;19964;-70
2022/04/29 10:31:21;;;;;;;;;;;10.60;99.90;;;;;;5034328;28;19972;-71
2022/04/29 10:33:47;;;;;;;;;;;10.60;99.90;;;;;;5034210;28;19925;-69
2022/04/29 10:36:16;;;;;;;;;;;10.60;99.90;;;;;;5066542;28;19931;-70
2022/04/29 10:38:48;;;;;;;;;;;10.60;99.90;;;;;;5034203;28;19925;-69
2022/04/29 10:41:13;;;;;;;;;;;10.60;99.90;;;;;;5034024;28;19971;-70
2022/04/29 10:43:40;;;;;;;;;;;10.70;99.90;;;;;;5034086;28;20359;-69
2022/04/29 10:46:06;;;;;;;;;;;10.60;99.90;;;;;;5034027;28;19925;-70
2022/04/29 10:48:32;;;;;;;;;;;11.00;99.90;;;;;;5036046;28;19925;-71
2022/04/29 10:50:58;;;;;;;;;;;10.70;99.90;;;;;;5043092;28;19929;-70
2022/04/29 10:53:24;;;;;;;;;;;10.80;99.90;;;;;;5053468;28;19931;-72
2022/04/29 10:55:49;;;;;;;;;;;10.90;99.90;;;;;;5053833;28;20269;-70
2022/04/29 10:58:19;;;;;;;;;;;10.90;99.90;;;;;;5049535;28;19931;-69
2022/04/29 11:01:03;;;;;;;;;;;10.90;99.90;;;;;;5043395;28;19933;-71
2022/04/29 11:03:38;;;;;;;;;;;10.80;99.90;;;;;;5045015;28;19925;-68
2022/04/29 11:06:11;;;;;;;;;;;10.80;99.90;;;;;;5052478;28;19932;-70
2022/04/29 11:08:37;;;;;;;;;;;10.70;99.90;;;;;;5052696;28;20090;-69
2022/04/29 11:11:03;;;;;;;;;;;10.70;99.90;;;;;;5053068;28;19925;-69
2022/04/29 11:13:30;;;;;;;;;;;10.80;99.90;;;;;;5053525;28;19931;-70
2022/04/29 11:16:11;;;;;;;;;;;10.60;99.90;;;;;;5053546;28;20418;-70
2022/04/29 11:18:37;;;;;;;;;;;10.70;99.90;;;;;;5052375;28;20384;-69
2022/04/29 11:26:48;;;;;;;;;;;10.70;99.90;;;;;;5053394;28;19987;-71
2022/04/29 11:29:14;;;;;;;;;;;11.30;99.90;;;;;;5052669;28;19925;-69
2022/04/29 11:31:40;;;;;;;;;;;10.70;99.90;;;;;;5053569;28;19931;-70
2022/04/29 11:34:16;;;;;;;;;;;10.70;99.90;;;;;;5053472;28;19932;-71
2022/04/29 11:36:43;;;;;;;;;;;10.70;99.90;;;;;;5053364;28;20382;-69
2022/04/29 11:39:13;;;;;;;;;;;10.80;99.90;;;;;;5053271;28;20280;-70
2022/04/29 11:41:50;;;;;;;;;;;11.40;99.90;;;;;;5053263;28;19932;-70
2022/04/29 11:44:16;;;;;;;;;;;10.70;99.90;;;;;;5053358;28;19928;-70
2022/04/29 11:46:53;;;;;;;;;;;10.70;99.90;;;;;;5053365;28;19971;-70
2022/04/29 11:49:26;;;;;;;;;;;10.80;99.90;;;;;;5053236;28;19924;-69
2022/04/29 11:51:52;;;;;;;;;;;10.70;99.90;;;;;;5053071;28;20379;-69
2022/04/29 11:54:17;;;;;;;;;;;10.70;99.90;;;;;;5053353;28;19932;-69
2022/04/29 11:56:43;;;;;;;;;;;10.80;99.90;;;;;;5052376;28;19931;-69
2022/04/29 11:59:10;;;;;;;;;;;10.70;99.90;;;;;;5053314;28;20008;-72
2022/04/29 12:01:36;;;;;;;;;;;10.70;99.90;;;;;;5035483;28;19932;-72
2022/04/29 12:04:02;;;;;;;;;;;10.60;99.90;;;;;;5051118;28;20097;-69
2022/04/29 12:06:29;;;;;;;;;;;10.60;99.90;;;;;;5052679;28;19980;-71
2022/04/29 12:08:55;;;;;;;;;;;10.60;99.90;;;;;;5052231;28;19925;-69
2022/04/29 12:11:29;;;;;;;;;;;10.60;99.90;;;;;;5052882;28;19940;-71
2022/04/29 12:13:54;;;;;;;;;;;10.60;99.90;;;;;;5052942;28;19951;-70
2022/04/29 12:16:20;;;;;;;;;;;10.60;99.90;;;;;;5052946;28;19929;-71
2022/04/29 12:18:47;;;;;;;;;;;10.90;99.90;;;;;;5052726;28;19932;-70
2022/04/29 12:21:20;;;;;;;;;;;10.60;99.90;;;;;;5053487;28;19947;-71
2022/04/29 12:23:45;;;;;;;;;;;10.60;99.90;;;;;;5056415;28;20399;-72
2022/04/29 12:26:11;;;;;;;;;;;10.60;99.90;;;;;;5055476;28;19929;-70
2022/04/29 12:28:37;;;;;;;;;;;10.60;99.90;;;;;;5056410;28;19978;-70
2022/04/29 12:36:57;;;;;;;;;;;10.60;99.90;;;;;;5056309;28;19970;-70
2022/04/29 12:39:26;;;;;;;;;;;10.60;99.90;;;;;;5055058;28;19925;-71
2022/04/29 12:42:03;;;;;;;;;;;10.60;99.90;;;;;;5055885;28;19925;-70
2022/04/29 12:47:30;;;;;;;;;;;10.60;99.90;;;;;;5056057;28;20335;-70
2022/04/29 12:50:14;;;;;;;;;;;10.60;99.90;;;;;;5055961;28;20277;-73
2022/04/29 12:52:50;;;;;;;;;;;10.60;99.90;;;;;;5055638;28;19980;-71
2022/04/29 12:55:16;;;;;;;;;;;10.60;99.90;;;;;;5055875;28;19925;-72
2022/04/29 12:57:41;;;;;;;;;;;10.60;99.90;;;;;;5055838;28;20269;-69
2022/04/29 13:00:08;;;;;;;;;;;11.00;99.90;;;;;;5054939;28;20028;-70
2022/04/29 13:02:33;;;;;;;;;;;10.60;99.90;;;;;;5055650;28;19948;-71
2022/04/29 13:04:59;;;;;;;;;;;10.80;99.90;;;;;;5055356;28;19925;-70
2022/04/29 13:07:25;;;;;;;;;;;10.70;99.90;;;;;;5055426;28;20380;-70
2022/04/29 13:09:51;;;;;;;;;;;10.60;99.90;;;;;;5055635;28;19968;-70
2022/04/29 13:12:17;;;;;;;;;;;10.70;99.90;;;;;;5055515;28;20364;-68
2022/04/29 13:14:43;;;;;;;;;;;10.60;99.90;;;;;;5055564;28;19925;-69
2022/04/29 13:17:08;;;;;;;;;;;10.60;99.90;;;;;;5055361;28;20019;-68
2022/04/29 13:19:34;;;;;;;;;;;10.60;99.90;;;;;;5055356;28;20016;-68
2022/04/29 13:21:59;;;;;;;;;;;10.70;99.90;;;;;;5054010;28;19925;-70
2022/04/29 13:24:26;;;;;;;;;;;10.00;99.90;;;;;;5055324;28;19931;-71
2022/04/29 13:26:52;;;;;;;;;;;10.80;99.90;;;;;;5055411;28;19931;-69
2022/04/29 13:29:17;;;;;;;;;;;10.80;99.90;;;;;;5055329;28;19925;-69
2022/04/29 13:31:43;;;;;;;;;;;10.90;99.90;;;;;;5055259;28;19991;-70
2022/04/29 13:34:08;;;;;;;;;;;10.90;99.90;;;;;;5054462;28;19932;-69
2022/04/29 13:36:34;;;;;;;;;;;10.90;99.90;;;;;;5054048;28;19925;-70
2022/04/29 13:38:59;;;;;;;;;;;10.90;99.90;;;;;;5054836;28;19925;-70
2022/04/29 13:41:25;;;;;;;;;;;10.80;99.90;;;;;;5054983;28;20493;-71
2022/04/29 13:43:50;;;;;;;;;;;10.80;99.90;;;;;;5055046;28;19928;-71
2022/04/29 13:46:16;;;;;;;;;;;10.80;99.90;;;;;;5054943;28;20408;-70
2022/04/29 13:48:42;;;;;;;;;;;10.80;99.90;;;;;;5054770;28;19925;-69
2022/04/29 13:51:07;;;;;;;;;;;11.10;99.90;;;;;;5054875;28;19972;-70
2022/04/29 13:53:51;;;;;;;;;;;10.90;99.90;;;;;;5054758;28;19931;-69
2022/04/29 13:56:17;;;;;;;;;;;10.90;99.90;;;;;;5054743;28;19931;-70
2022/04/29 13:58:43;;;;;;;;;;;11.00;99.90;;;;;;5053426;28;19925;-70
2022/04/29 14:01:08;;;;;;;;;;;11.10;99.90;;;;;;5053557;28;19979;-72
2022/04/29 14:03:34;;;;;;;;;;;10.90;99.90;;;;;;5054356;28;19924;-69
2022/04/29 14:06:00;;;;;;;;;;;11.00;99.90;;;;;;5054525;28;19932;-70
2022/04/29 14:08:25;;;;;;;;;;;11.00;99.90;;;;;;5053328;28;19976;-70
2022/04/29 14:10:52;;;;;;;;;;;11.00;99.90;;;;;;5054448;28;19924;-69
2022/04/29 14:13:18;;;;;;;;;;;10.90;99.90;;;;;;5054447;28;20019;-69
2022/04/29 14:15:44;;;;;;;;;;;11.30;99.90;;;;;;5054399;28;19925;-70
2022/04/29 14:18:11;;;;;;;;;;;10.80;99.90;;;;;;5054136;28;19925;-71
2022/04/29 14:20:36;;;;;;;;;;;11.00;99.90;;;;;;5054154;28;19970;-69
2022/04/29 14:23:02;;;;;;;;;;;10.90;99.90;;;;;;5052769;28;19925;-70
2022/04/29 14:25:28;;;;;;;;;;;10.80;99.90;;;;;;5054240;28;19925;-70
2022/04/29 14:27:56;;;;;;;;;;;10.80;99.90;;;;;;5054267;28;20229;-69
2022/04/29 14:30:22;;;;;;;;;;;10.80;99.90;;;;;;5052462;28;19928;-70
2022/04/29 14:32:47;;;;;;;;;;;10.90;99.90;;;;;;5052608;28;20338;-69
2022/04/29 14:35:13;;;;;;;;;;;11.10;99.90;;;;;;5053744;28;19964;-69
2022/04/29 14:37:39;;;;;;;;;;;11.20;99.90;;;;;;5052401;28;19924;-70
2022/04/29 14:40:06;;;;;;;;;;;11.30;99.90;;;;;;5052687;28;20396;-69
2022/04/29 14:42:32;;;;;;;;;;;11.40;99.90;;;;;;5053732;28;19928;-69
2022/04/29 14:44:58;;;;;;;;;;;11.40;99.90;;;;;;5053096;28;19925;-70
2022/04/29 14:47:23;;;;;;;;;;;11.40;99.90;;;;;;5052847;28;19971;-69
2022/04/29 14:49:49;;;;;;;;;;;11.40;99.90;;;;;;5053674;28;19932;-69
2022/04/29 14:52:15;;;;;;;;;;;11.60;99.90;;;;;;5053676;28;19925;-70
2022/04/29 14:54:41;;;;;;;;;;;11.30;99.90;;;;;;5036032;28;19978;-70
2022/04/29 14:57:06;;;;;;;;;;;11.20;99.90;;;;;;5053561;28;19925;-70
2022/04/29 14:59:32;;;;;;;;;;;11.10;99.90;;;;;;5053024;28;19932;-69